| time (UTC) | temp F | wind direction | speed knots | gust knots | rain 1hr in | rain 24hr in | rain mn in | humidity % | barometer mb |
| 20260505031947 | 51 | 122 | 0.0 | 0.9 | 0.05 | 0.03 | 0.03 | 85 | 997.0 |
| 20260505031444 | 51 | 136 | 0.0 | 0.9 | 0.07 | 0.02 | 0.02 | 84 | 997.0 |
| 20260505030941 | 51 | 100 | 0.9 | 1.7 | 0.07 | 0.02 | 0.02 | 84 | 997.2 |
| 20260505030437 | 51 | 130 | 0.9 | 0.9 | 0.00 | 0.01 | 0.01 | 83 | 997.0 |
| 20260505025932 | 51 | 153 | 0.0 | 0.0 | 0.05 | 0.01 | 0.01 | 83 | 996.6 |
| 20260505025429 | 52 | 185 | 0.9 | 1.7 | 0.05 | 0.01 | 0.01 | 81 | 996.1 |
| 20260505024928 | 52 | 171 | 0.9 | 0.9 | 0.05 | 0.01 | 0.01 | 79 | 996.3 |
| 20260505024425 | 53 | 149 | 0.9 | 1.7 | 0.00 | 0.00 | 0.00 | 75 | 996.1 |
| 20260505023922 | 53 | 165 | 0.9 | 1.7 | 0.00 | 0.00 | 0.00 | 72 | 996.2 |
| 20260505023419 | 53 | 144 | 0.0 | 0.0 | 0.00 | 0.00 | 0.00 | 70 | 996.1 |
| 20260505022917 | 53 | 131 | 0.0 | 0.0 | 0.00 | 0.00 | 0.00 | 69 | 995.8 |
| 20260505022414 | 53 | 135 | 0.0 | 0.0 | 0.00 | 0.00 | 0.00 | 69 | 995.7 |
| 20260505021911 | 53 | 155 | 0.0 | 0.0 | 0.00 | 0.00 | 0.00 | 69 | 995.5 |
| 20260505021407 | 53 | 147 | 1.7 | 1.7 | 0.00 | 0.00 | 0.00 | 69 | 995.8 |
| 20260505020903 | 53 | 169 | 1.7 | 2.6 | 0.00 | 0.00 | 0.00 | 69 | 995.8 |
| 20260505020359 | 54 | 126 | 2.6 | 2.6 | 0.00 | 0.00 | 0.00 | 68 | 996.1 |
| 20260505015856 | 54 | 144 | 1.7 | 2.6 | 0.00 | 0.00 | 0.00 | 68 | 995.9 |
| 20260505015353 | 54 | 102 | 3.5 | 5.2 | 0.00 | 0.00 | 0.00 | 66 | 995.9 |
| 20260505014850 | 54 | 135 | 4.3 | 7.0 | 0.00 | 0.00 | 0.00 | 67 | 995.7 |
| 20260505014347 | 54 | 132 | 5.2 | 7.0 | 0.00 | 0.00 | 0.00 | 68 | 995.8 |
| 20260505013844 | 54 | 79 | 6.1 | 7.8 | 0.00 | 0.00 | 0.00 | 69 | 995.5 |
| 20260505013341 | 54 | 149 | 3.5 | 3.5 | 0.00 | 0.00 | 0.00 | 69 | 995.5 |
| 20260505012839 | 54 | 77 | 4.3 | 5.2 | 0.00 | 0.00 | 0.00 | 69 | 995.9 |
| 20260505012337 | 54 | 130 | 3.5 | 3.5 | 0.00 | 0.00 | 0.00 | 69 | 995.7 |
| 20260505011833 | 54 | 140 | 5.2 | 7.8 | 0.00 | 0.00 | 0.00 | 69 | 995.7 |
| 20260505011330 | 54 | 137 | 7.8 | 11.3 | 0.00 | 0.00 | 0.00 | 69 | 995.5 |
| 20260505010826 | 54 | 132 | 3.5 | 3.5 | 0.00 | 0.00 | 0.00 | 70 | 995.8 |
| 20260505010322 | 55 | 97 | 7.0 | 8.7 | 0.00 | 0.00 | 0.00 | 72 | 995.7 |
| 20260505005818 | 57 | 82 | 5.2 | 6.1 | 0.00 | 0.00 | 0.00 | 66 | 995.8 |
| 20260505005315 | 59 | 75 | 2.6 | 5.2 | 0.00 | 0.00 | 0.00 | 54 | 995.2 |
| 20260505004813 | 59 | 149 | 3.5 | 6.1 | 0.00 | 0.00 | 0.00 | 53 | 995.4 |
| 20260505004308 | 59 | 140 | 3.5 | 5.2 | 0.00 | 0.00 | 0.00 | 54 | 995.2 |
| 20260505003806 | 59 | 143 | 4.3 | 6.1 | 0.00 | 0.00 | 0.00 | 55 | 995.2 |
| 20260505003303 | 59 | 149 | 4.3 | 5.2 | 0.00 | 0.00 | 0.00 | 55 | 995.2 |
| 20260505002759 | 59 | 130 | 5.2 | 6.1 | 0.00 | 0.00 | 0.00 | 54 | 995.4 |
| 20260505002257 | 59 | 138 | 6.1 | 7.8 | 0.00 | 0.00 | 0.00 | 53 | 995.2 |
| 20260505001755 | 59 | 116 | 4.3 | 5.2 | 0.00 | 0.00 | 0.00 | 53 | 995.1 |
| 20260505001252 | 59 | 135 | 2.6 | 3.5 | 0.00 | 0.00 | 0.00 | 54 | 995.1 |
| 20260505000749 | 59 | 124 | 3.5 | 5.2 | 0.00 | 0.00 | 0.00 | 57 | 995.0 |
| 20260505000247 | 59 | 162 | 4.3 | 6.1 | 0.00 | 0.00 | 0.00 | 56 | 995.2 |
| 20260504235743 | 59 | 147 | 3.5 | 5.2 | 0.00 | 0.00 | 0.00 | 57 | 995.0 |
| 20260504235239 | 59 | 132 | 1.7 | 2.6 | 0.00 | 0.00 | 0.00 | 56 | 995.1 |
| 20260504234736 | 58 | 159 | 3.5 | 3.5 | 0.00 | 0.00 | 0.00 | 58 | 994.8 |
| 20260504234234 | 58 | 149 | 6.1 | 7.8 | 0.00 | 0.00 | 0.00 | 57 | 994.8 |
| 20260504233730 | 57 | 135 | 6.1 | 7.0 | 0.00 | 0.00 | 0.00 | 60 | 995.1 |
| 20260504233226 | 57 | 140 | 6.1 | 7.0 | 0.00 | 0.00 | 0.00 | 63 | 995.2 |
| 20260504232723 | 57 | 76 | 5.2 | 6.1 | 0.00 | 0.00 | 0.00 | 62 | 995.2 |
| 20260504232220 | 57 | 142 | 3.5 | 5.2 | 0.00 | 0.00 | 0.00 | 63 | 995.1 |
| 20260504231716 | 59 | 82 | 4.3 | 8.7 | 0.00 | 0.00 | 0.00 | 62 | 995.1 |
| 20260504231213 | 62 | 93 | 4.3 | 6.1 | 0.00 | 0.00 | 0.00 | 52 | 995.0 |
| 20260504230709 | 63 | 96 | 3.5 | 5.2 | 0.00 | 0.00 | 0.00 | 43 | 994.6 |
| 20260504230208 | 63 | 114 | 2.6 | 3.5 | 0.00 | 0.00 | 0.00 | 42 | 994.5 |
| 20260504225706 | 63 | 82 | 1.7 | 3.5 | 0.00 | 0.00 | 0.00 | 41 | 994.3 |
| 20260504225202 | 63 | 135 | 3.5 | 3.5 | 0.00 | 0.00 | 0.00 | 40 | 994.3 |
| 20260504224659 | 63 | 123 | 4.3 | 6.1 | 0.00 | 0.00 | 0.00 | 40 | 993.8 |
| 20260504224156 | 64 | 152 | 5.2 | 7.0 | 0.00 | 0.00 | 0.00 | 39 | 994.0 |
| 20260504223653 | 64 | 159 | 5.2 | 7.0 | 0.00 | 0.00 | 0.00 | 39 | 994.0 |
| 20260504223148 | 63 | 112 | 5.2 | 7.0 | 0.00 | 0.00 | 0.00 | 39 | 993.7 |
| 20260504222646 | 64 | 141 | 2.6 | 3.5 | 0.00 | 0.00 | 0.00 | 41 | 993.9 |
| 20260504222142 | 64 | 149 | 2.6 | 2.6 | 0.00 | 0.00 | 0.00 | 41 | 993.7 |
| 20260504221640 | 64 | 122 | 2.6 | 2.6 | 0.00 | 0.00 | 0.00 | 40 | 993.3 |
| 20260504221137 | 63 | 153 | 4.3 | 5.2 | 0.00 | 0.00 | 0.00 | 41 | 993.6 |
| 20260504220633 | 63 | 120 | 4.3 | 5.2 | 0.00 | 0.00 | 0.00 | 42 | 993.2 |
| 20260504220131 | 63 | 134 | 2.6 | 3.5 | 0.00 | 0.00 | 0.00 | 44 | 993.3 |
| 20260504215627 | 63 | 205 | 1.7 | 2.6 | 0.00 | 0.00 | 0.00 | 41 | 993.5 |
| 20260504215125 | 62 | 111 | 3.5 | 5.2 | 0.00 | 0.00 | 0.00 | 45 | 993.5 |
| 20260504214620 | 61 | 191 | 4.3 | 6.1 | 0.00 | 0.00 | 0.00 | 48 | 993.7 |
| 20260504214117 | 61 | 110 | 9.6 | 12.2 | 0.00 | 0.00 | 0.00 | 50 | 994.1 |
| 20260504213613 | 62 | 115 | 7.8 | 11.3 | 0.00 | 0.00 | 0.00 | 48 | 994.3 |
| 20260504213110 | 63 | 88 | 4.3 | 5.2 | 0.00 | 0.00 | 0.00 | 42 | 994.6 |
| 20260504212606 | 62 | 112 | 3.5 | 6.1 | 0.00 | 0.00 | 0.00 | 40 | 994.7 |
| 20260504212104 | 62 | 136 | 3.5 | 3.5 | 0.00 | 0.00 | 0.00 | 41 | 995.0 |
| 20260504211601 | 64 | 143 | 11.3 | 13.9 | 0.00 | 0.00 | 0.00 | 38 | 995.0 |
| 20260504211057 | 64 | 161 | 0.9 | 1.7 | 0.00 | 0.00 | 0.00 | 36 | 994.6 |
| 20260504210555 | 64 | 128 | 1.7 | 3.5 | 0.00 | 0.00 | 0.00 | 35 | 994.6 |
| 20260504210051 | 64 | 92 | 6.1 | 8.7 | 0.00 | 0.00 | 0.00 | 37 | 994.4 |
| 20260504205549 | 65 | 135 | 7.8 | 12.2 | 0.00 | 0.00 | 0.00 | 39 | 994.3 |
| 20260504205047 | 65 | 163 | 6.1 | 9.6 | 0.00 | 0.00 | 0.00 | 33 | 994.0 |
| 20260504204544 | 66 | 115 | 13.0 | 16.5 | 0.00 | 0.00 | 0.00 | 33 | 993.9 |
| 20260504204044 | 66 | 148 | 10.4 | 14.8 | 0.00 | 0.00 | 0.00 | 32 | 993.5 |
| 20260504203541 | 67 | 136 | 10.4 | 13.9 | 0.00 | 0.00 | 0.00 | 31 | 993.1 |
| 20260504203038 | 67 | 141 | 13.0 | 16.5 | 0.00 | 0.00 | 0.00 | 29 | 992.8 |
| 20260504202533 | 67 | 143 | 11.3 | 14.8 | 0.00 | 0.00 | 0.00 | 29 | 993.0 |
| 20260504202031 | 68 | 123 | 15.6 | 21.7 | 0.00 | 0.00 | 0.00 | 30 | 992.8 |
| 20260504201527 | 69 | 153 | 15.6 | 21.7 | 0.00 | 0.00 | 0.00 | 29 | 992.9 |
| 20260504201026 | 71 | 142 | 10.4 | 12.2 | 0.00 | 0.00 | 0.00 | 25 | 993.0 |
| 20260504200521 | 72 | 102 | 7.0 | 11.3 | 0.00 | 0.00 | 0.00 | 24 | 993.2 |
| 20260504200019 | 73 | 143 | 7.0 | 11.3 | 0.00 | 0.00 | 0.00 | 22 | 993.0 |
| 20260504195515 | 73 | 96 | 6.1 | 8.7 | 0.00 | 0.00 | 0.00 | 23 | 993.2 |
| 20260504195011 | 73 | 159 | 8.7 | 11.3 | 0.00 | 0.00 | 0.00 | 24 | 993.2 |
| 20260504194508 | 73 | 136 | 5.2 | 7.0 | 0.00 | 0.00 | 0.00 | 23 | 993.0 |
| 20260504194003 | 74 | 112 | 2.6 | 3.5 | 0.00 | 0.00 | 0.00 | 24 | 993.0 |
| 20260504193500 | 76 | 162 | 10.4 | 13.9 | 0.00 | 0.00 | 0.00 | 24 | 992.8 |
| 20260504192959 | 76 | 138 | 6.1 | 8.7 | 0.00 | 0.00 | 0.00 | 23 | 992.6 |
| 20260504192456 | 75 | 132 | 4.3 | 5.2 | 0.00 | 0.00 | 0.00 | 23 | 992.8 |
| 20260504191955 | 74 | 103 | 3.5 | 5.2 | 0.00 | 0.00 | 0.00 | 23 | 992.9 |
| 20260504191452 | 74 | 140 | 6.1 | 7.8 | 0.00 | 0.00 | 0.00 | 23 | 992.9 |
| 20260504190947 | 74 | 132 | 1.7 | 1.7 | 0.00 | 0.00 | 0.00 | 22 | 992.8 |
| 20260504190444 | 74 | 150 | 0.9 | 1.7 | 0.00 | 0.00 | 0.00 | 22 | 992.9 |
| 20260504185940 | 74 | 149 | 1.7 | 3.5 | 0.00 | 0.00 | 0.00 | 23 | 992.8 |
| 20260504185438 | 75 | 98 | 3.5 | 3.5 | 0.00 | 0.00 | 0.00 | 23 | 993.1 |
| 20260504184934 | 75 | 244 | 1.7 | 1.7 | 0.00 | 0.00 | 0.00 | 22 | 993.0 |
| 20260504184429 | 74 | 157 | 0.9 | 1.7 | 0.00 | 0.00 | 0.00 | 22 | 993.1 |
| 20260504183925 | 74 | 165 | 2.6 | 5.2 | 0.00 | 0.00 | 0.00 | 23 | 993.0 |
| 20260504183423 | 73 | 146 | 1.7 | 2.6 | 0.00 | 0.00 | 0.00 | 24 | 993.1 |
| 20260504182921 | 73 | 149 | 1.7 | 2.6 | 0.00 | 0.00 | 0.00 | 24 | 993.2 |
| 20260504182417 | 72 | 148 | 1.7 | 2.6 | 0.00 | 0.00 | 0.00 | 26 | 993.5 |
| 20260504181914 | 72 | 324 | 3.5 | 5.2 | 0.00 | 0.00 | 0.00 | 26 | 993.2 |
| 20260504181412 | 73 | 86 | 5.2 | 7.8 | 0.00 | 0.00 | 0.00 | 26 | 993.5 |
| 20260504180910 | 72 | 42 | 2.6 | 2.6 | 0.00 | 0.00 | 0.00 | 27 | 993.5 |
| 20260504180409 | 72 | 166 | 0.9 | 1.7 | 0.00 | 0.00 | 0.00 | 25 | 993.7 |
| 20260504175907 | 71 | 347 | 0.9 | 0.9 | 0.00 | 0.00 | 0.00 | 27 | 993.6 |
| 20260504175403 | 71 | 3 | 2.6 | 2.6 | 0.00 | 0.00 | 0.00 | 27 | 993.9 |
| 20260504174901 | 71 | 181 | 2.6 | 5.2 | 0.00 | 0.00 | 0.00 | 27 | 993.7 |
| 20260504174358 | 72 | 145 | 4.3 | 7.0 | 0.00 | 0.00 | 0.00 | 26 | 993.9 |
| 20260504173855 | 71 | 112 | 1.7 | 6.1 | 0.00 | 0.00 | 0.00 | 26 | 993.8 |
| 20260504173352 | 71 | 301 | 4.3 | 5.2 | 0.00 | 0.00 | 0.00 | 27 | 993.9 |
| 20260504172849 | 70 | 111 | 1.7 | 2.6 | 0.00 | 0.00 | 0.00 | 27 | 994.0 |
| 20260504172346 | 70 | 19 | 1.7 | 7.0 | 0.00 | 0.00 | 0.00 | 29 | 994.1 |
| 20260504171841 | 70 | 94 | 1.7 | 3.5 | 0.00 | 0.00 | 0.00 | 28 | 994.1 |
| 20260504171339 | 69 | 95 | 1.7 | 1.7 | 0.00 | 0.00 | 0.00 | 29 | 994.0 |
| 20260504170836 | 68 | 143 | 0.0 | 0.0 | 0.00 | 0.00 | 0.00 | 30 | 993.9 |
| 20260504170332 | 68 | 91 | 3.5 | 3.5 | 0.00 | 0.00 | 0.00 | 29 | 994.3 |
| 20260504160251 | 66 | 153 | 1.7 | 1.7 | 0.00 | 0.00 | 0.00 | 31 | 994.3 |
| 20260504150716 | 57 | 163 | 0.0 | 0.0 | 0.00 | 0.00 | 0.00 | 43 | 994.7 |
| 20260504150213 | 56 | 163 | 0.0 | 0.0 | 0.00 | 0.00 | 0.00 | 43 | 994.6 |
| 20260504141142 | 52 | 131 | 0.9 | 0.9 | 0.00 | 0.00 | 0.00 | 51 | 994.6 |
| 20260504140639 | 51 | 164 | 0.0 | 0.0 | 0.00 | 0.00 | 0.00 | 51 | 994.6 |
| 20260504140134 | 51 | 158 | 0.0 | 0.0 | 0.00 | 0.00 | 0.00 | 52 | 995.1 |
| 20260504130603 | 44 | 143 | 0.0 | 0.0 | 0.00 | 0.00 | 0.00 | 68 | 994.8 |
| 20260504110451 | 44 | 162 | 0.0 | 0.0 | 0.00 | 0.00 | 0.00 | 55 | 995.3 |
| 20260504100413 | 44 | 152 | 0.0 | 0.0 | 0.00 | 0.00 | 0.00 | 64 | 995.4 |
| 20260504081806 | 50 | 169 | 0.0 | 0.0 | 0.00 | 0.00 | 0.00 | 56 | 996.0 |
| 20260504081303 | 51 | 117 | 0.9 | 0.9 | 0.00 | 0.00 | 0.00 | 48 | 995.9 |
| 20260504080759 | 51 | 134 | 0.0 | 0.9 | 0.00 | 0.00 | 0.00 | 47 | 996.1 |
| 20260504080255 | 51 | 122 | 0.9 | 0.9 | 0.00 | 0.00 | 0.00 | 47 | 995.9 |
| 20260504070223 | 54 | 143 | 4.3 | 5.2 | 0.00 | 0.00 | 0.00 | 42 | 996.6 |
| 20260504060143 | 55 | 145 | 3.5 | 3.5 | 0.00 | 0.00 | 0.00 | 40 | 996.5 |
| 20260504050612 | 57 | 162 | 4.3 | 6.1 | 0.00 | 0.00 | 0.00 | 37 | 996.5 |
| 20260504050109 | 58 | 142 | 2.6 | 2.6 | 0.00 | 0.00 | 0.00 | 36 | 996.3 |
| 20260504045606 | 58 | 140 | 1.7 | 1.7 | 0.00 | 0.00 | 0.00 | 36 | 996.3 |
| 20260504045100 | 59 | 128 | 2.6 | 2.6 | 0.00 | 0.00 | 0.00 | 35 | 996.2 |
| 20260504044559 | 60 | 141 | 3.5 | 5.2 | 0.00 | 0.00 | 0.00 | 33 | 996.3 |
| 20260504044055 | 60 | 124 | 6.1 | 7.0 | 0.00 | 0.00 | 0.00 | 31 | 996.3 |
| 20260504043553 | 61 | 139 | 3.5 | 3.5 | 0.00 | 0.00 | 0.00 | 31 | 996.3 |
| 20260504043049 | 60 | 130 | 2.6 | 2.6 | 0.00 | 0.00 | 0.00 | 31 | 996.7 |
| 20260504042547 | 60 | 146 | 0.0 | 0.9 | 0.00 | 0.00 | 0.00 | 31 | 996.5 |
| 20260504042043 | 60 | 92 | 0.9 | 1.7 | 0.00 | 0.00 | 0.00 | 32 | 996.3 |
| 20260504041539 | 61 | 156 | 5.2 | 7.0 | 0.00 | 0.00 | 0.00 | 33 | 996.3 |
| 20260504041035 | 61 | 147 | 0.0 | 0.0 | 0.00 | 0.00 | 0.00 | 32 | 996.1 |
| 20260504040533 | 60 | 156 | 0.0 | 0.0 | 0.00 | 0.00 | 0.00 | 32 | 996.3 |
| 20260504040030 | 60 | 156 | 0.0 | 0.0 | 0.00 | 0.00 | 0.00 | 34 | 996.3 |
| 20260504035526 | 60 | 195 | 0.0 | 0.0 | 0.00 | 0.00 | 0.00 | 35 | 996.3 |
| 20260504035023 | 60 | 179 | 0.0 | 0.9 | 0.00 | 0.00 | 0.00 | 35 | 996.2 |
| 20260504034521 | 61 | 175 | 0.9 | 0.9 | 0.00 | 0.00 | 0.00 | 36 | 996.2 |
| 20260504034017 | 63 | 176 | 0.0 | 0.0 | 0.00 | 0.00 | 0.00 | 35 | 996.3 |
| 20260504033515 | 64 | 170 | 0.0 | 0.9 | 0.00 | 0.00 | 0.00 | 29 | 996.1 |
| 20260504033013 | 63 | 153 | 0.0 | 0.9 | 0.00 | 0.00 | 0.00 | 29 | 996.3 |
| 20260504032509 | 63 | 125 | 0.9 | 0.9 | 0.00 | 0.00 | 0.00 | 29 | 996.0 |